Time;durP1;ratioP1;P1;durP2;ratioP2;P2;SDS_P1;SDS_P2;PMS_P1;PMS_P2;Temp;Humidity;BMP_temperature;BMP_pressure;BME280_temperature;BME280_humidity;BME280_pressure;Samples;Min_cycle;Max_cycle;Signal;HPM_P1;HPM_P2
2023/05/04 00:00:43;;;;;;;6.32;4.32;;;12.50;97.80;;;;;;5116007;28;20173;-60
2023/05/04 00:03:11;;;;;;;4.35;3.95;;;12.40;97.80;;;;;;5115966;28;20187;-58
2023/05/04 00:05:37;;;;;;;6.35;4.50;;;12.30;97.90;;;;;;5115842;28;20632;-58
2023/05/04 00:08:03;;;;;;;5.00;4.38;;;12.20;98.40;;;;;;5115760;28;20181;-58
2023/05/04 00:10:28;;;;;;;5.72;4.18;;;12.10;98.30;;;;;;5115401;28;20567;-60
2023/05/04 00:12:54;;;;;;;5.75;4.20;;;12.30;98.70;;;;;;5115613;28;20166;-60
2023/05/04 00:15:20;;;;;;;6.32;4.50;;;12.20;98.40;;;;;;5115769;28;20264;-58
2023/05/04 00:17:46;;;;;;;6.57;4.30;;;12.10;98.70;;;;;;5115674;28;20177;-60
2023/05/04 00:20:12;;;;;;;6.22;5.10;;;12.20;98.80;;;;;;5115452;28;20173;-59
2023/05/04 00:22:38;;;;;;;6.03;4.60;;;12.20;99.10;;;;;;5115419;28;20181;-60
2023/05/04 00:25:05;;;;;;;6.13;4.53;;;12.20;98.80;;;;;;5115280;28;20165;-60
2023/05/04 00:27:31;;;;;;;7.18;5.05;;;12.10;98.80;;;;;;5114705;28;20192;-60
2023/05/04 00:29:56;;;;;;;7.05;5.13;;;12.10;98.80;;;;;;5115501;28;20201;-60
2023/05/04 00:32:22;;;;;;;6.90;4.43;;;12.10;99.10;;;;;;5115170;28;20178;-58
2023/05/04 00:34:48;;;;;;;6.22;4.70;;;12.10;99.10;;;;;;5115329;28;20170;-60
2023/05/04 00:37:13;;;;;;;4.57;4.18;;;12.10;99.30;;;;;;5115198;28;20173;-59
2023/05/04 00:39:39;;;;;;;6.32;4.82;;;12.10;99.40;;;;;;5115010;28;20181;-58
2023/05/04 00:42:05;;;;;;;5.68;4.72;;;12.10;99.60;;;;;;5115201;28;20570;-61
2023/05/04 00:44:33;;;;;;;6.50;5.20;;;11.90;99.40;;;;;;5115206;28;20260;-60
2023/05/04 00:46:59;;;;;;;6.18;4.88;;;11.80;99.40;;;;;;5115058;28;20644;-59
2023/05/04 00:49:25;;;;;;;5.75;5.13;;;11.90;99.90;;;;;;5115073;28;20232;-60
2023/05/04 00:51:53;;;;;;;6.18;5.15;;;11.90;99.90;;;;;;5114847;28;20205;-60
2023/05/04 00:54:20;;;;;;;8.20;5.30;;;11.90;99.90;;;;;;5114817;28;20273;-59
2023/05/04 00:56:46;;;;;;;4.95;4.50;;;12.00;99.90;;;;;;5114939;28;20177;-59
2023/05/04 00:59:15;;;;;;;6.70;4.72;;;11.90;99.90;;;;;;5114879;28;20181;-60
2023/05/04 01:01:41;;;;;;;6.10;5.07;;;11.90;99.90;;;;;;5114745;28;20205;-59
2023/05/04 01:04:07;;;;;;;6.40;5.00;;;11.90;99.90;;;;;;5114668;28;20245;-59
2023/05/04 01:06:58;;;;;;;5.45;4.88;;;11.90;99.90;;;;;;5114582;28;20618;-59
2023/05/04 01:09:59;;;;;;;7.10;4.55;;;11.80;99.90;;;;;;5114695;28;20169;-60
2023/05/04 01:12:34;;;;;;;5.85;4.85;;;11.80;99.90;;;;;;5114590;28;20184;-60
2023/05/04 01:15:01;;;;;;;7.50;4.80;;;11.80;99.90;;;;;;5114430;28;20264;-58
2023/05/04 01:17:27;;;;;;;8.85;5.82;;;11.70;99.90;;;;;;5114371;28;20169;-60
2023/05/04 01:19:52;;;;;;;5.78;5.03;;;11.60;99.90;;;;;;5114532;28;20282;-60
2023/05/04 01:22:19;;;;;;;6.38;4.75;;;11.70;99.90;;;;;;5114368;28;20268;-60
2023/05/04 01:24:45;;;;;;;6.10;5.50;;;11.60;99.90;;;;;;5114343;28;20192;-60
2023/05/04 01:27:22;;;;;;;6.82;5.88;;;11.70;99.90;;;;;;5114265;28;20181;-60
2023/05/04 01:30:36;;;;;;;7.22;5.22;;;11.60;99.90;;;;;;5095764;28;20164;-61
2023/05/04 01:33:03;;;;;;;6.25;5.25;;;11.60;99.90;;;;;;5092110;28;20525;-58
2023/05/04 01:35:29;;;;;;;6.45;5.35;;;11.40;99.90;;;;;;5114123;28;20174;-58
2023/05/04 01:37:55;;;;;;;6.55;4.97;;;11.40;99.90;;;;;;5113987;28;20173;-58
2023/05/04 01:40:21;;;;;;;6.75;5.13;;;11.40;99.90;;;;;;5113961;28;20181;-58
2023/05/04 01:42:46;;;;;;;5.60;4.90;;;11.50;99.90;;;;;;5114335;28;20173;-58
2023/05/04 01:45:12;;;;;;;5.68;4.97;;;11.50;99.90;;;;;;5114436;28;20165;-58
2023/05/04 01:47:38;;;;;;;8.88;5.32;;;11.40;99.90;;;;;;5113717;28;20177;-59
2023/05/04 01:50:04;;;;;;;6.05;5.05;;;11.20;99.90;;;;;;5113965;28;20229;-58
2023/05/04 01:52:30;;;;;;;6.63;5.25;;;11.30;99.90;;;;;;5113813;28;20177;-58
2023/05/04 01:54:56;;;;;;;8.38;5.30;;;11.30;99.90;;;;;;5095367;28;20539;-58
2023/05/04 01:57:22;;;;;;;7.22;5.45;;;11.30;99.90;;;;;;5113682;28;20176;-58
2023/05/04 01:59:48;;;;;;;6.60;5.55;;;11.30;99.90;;;;;;5113872;28;20177;-57
2023/05/04 02:02:13;;;;;;;7.75;5.43;;;11.20;99.90;;;;;;5113817;28;20531;-58
2023/05/04 02:04:40;;;;;;;6.97;5.50;;;11.30;99.90;;;;;;5113628;28;20169;-58
2023/05/04 02:07:06;;;;;;;7.43;5.70;;;11.30;99.90;;;;;;5113516;28;20631;-58
2023/05/04 02:09:32;;;;;;;7.63;5.82;;;11.20;99.90;;;;;;5113545;28;20212;-58
2023/05/04 02:11:57;;;;;;;7.35;6.20;;;11.30;99.90;;;;;;5113723;28;20236;-58
2023/05/04 02:14:23;;;;;;;6.53;5.65;;;11.20;99.90;;;;;;5113721;28;20210;-58
2023/05/04 02:16:49;;;;;;;6.57;5.90;;;11.20;99.90;;;;;;5113617;28;20667;-59
2023/05/04 02:19:14;;;;;;;6.57;5.78;;;11.20;99.90;;;;;;5113542;28;20635;-58
2023/05/04 02:21:43;;;;;;;7.68;5.43;;;11.10;99.90;;;;;;5113508;28;20574;-58
2023/05/04 02:24:09;;;;;;;8.13;5.63;;;11.10;99.90;;;;;;5113398;28;20165;-59
2023/05/04 02:26:35;;;;;;;8.18;5.50;;;11.10;99.90;;;;;;5113247;28;20177;-58
2023/05/04 02:29:04;;;;;;;6.43;5.47;;;11.10;99.90;;;;;;5113511;28;20176;-59
2023/05/04 02:31:33;;;;;;;7.78;5.68;;;11.10;99.90;;;;;;5113332;28;20209;-59
2023/05/04 02:34:00;;;;;;;6.30;5.40;;;11.10;99.90;;;;;;5113297;28;20185;-59
2023/05/04 02:36:26;;;;;;;8.55;5.75;;;11.10;99.90;;;;;;5113415;28;20192;-59
2023/05/04 02:38:53;;;;;;;6.82;5.47;;;11.10;99.90;;;;;;5113543;28;20519;-58
2023/05/04 02:41:19;;;;;;;7.35;5.78;;;10.90;99.90;;;;;;5113406;28;20189;-58
2023/05/04 02:43:45;;;;;;;7.75;5.40;;;10.90;99.90;;;;;;5113316;28;20227;-58
2023/05/04 02:46:11;;;;;;;8.57;5.60;;;10.80;99.90;;;;;;5113216;28;20174;-58
2023/05/04 02:48:36;;;;;;;7.22;5.45;;;10.80;99.90;;;;;;5094807;28;20200;-59
2023/05/04 02:51:02;;;;;;;7.82;5.35;;;10.70;99.90;;;;;;5115514;28;20236;-58
2023/05/04 02:53:28;;;;;;;7.63;5.85;;;10.70;99.90;;;;;;5117162;28;20208;-58
2023/05/04 02:55:54;;;;;;;7.50;5.40;;;10.60;99.90;;;;;;5117318;28;20184;-59
2023/05/04 02:58:19;;;;;;;7.80;6.13;;;10.70;99.90;;;;;;5117486;28;20180;-59
2023/05/04 03:00:45;;;;;;;7.85;5.15;;;10.60;99.90;;;;;;5117139;28;20177;-59
2023/05/04 03:03:11;;;;;;;7.90;5.88;;;10.60;99.90;;;;;;5117065;28;20573;-58
2023/05/04 03:05:37;;;;;;;9.13;5.85;;;10.60;99.90;;;;;;5116918;28;20289;-58
2023/05/04 03:08:03;;;;;;;6.93;5.57;;;10.70;99.90;;;;;;5116924;28;20169;-59
2023/05/04 03:10:28;;;;;;;7.25;5.75;;;10.60;99.90;;;;;;5116939;28;20571;-58
2023/05/04 03:12:54;;;;;;;6.53;5.60;;;10.50;99.90;;;;;;5117202;28;20169;-59
2023/05/04 03:15:21;;;;;;;7.72;5.53;;;10.50;99.90;;;;;;5116853;28;20173;-58
2023/05/04 03:17:46;;;;;;;7.72;5.45;;;10.50;99.90;;;;;;5116699;28;20255;-58
2023/05/04 03:20:12;;;;;;;6.90;5.57;;;10.40;99.90;;;;;;5116492;28;20219;-59
2023/05/04 03:22:38;;;;;;;8.15;6.00;;;10.30;99.90;;;;;;5117257;28;20260;-58
2023/05/04 03:25:05;;;;;;;6.47;5.88;;;10.30;99.90;;;;;;5116543;28;20181;-58
2023/05/04 03:27:30;;;;;;;8.63;5.68;;;10.40;99.90;;;;;;5116618;28;20540;-58
2023/05/04 03:29:56;;;;;;;6.85;5.80;;;10.40;99.90;;;;;;5116414;28;20181;-58
2023/05/04 03:32:23;;;;;;;16.10;6.35;;;10.30;99.90;;;;;;5116456;28;20180;-58
2023/05/04 03:34:49;;;;;;;9.40;6.28;;;10.30;99.90;;;;;;5116208;28;20652;-59
2023/05/04 03:37:14;;;;;;;6.93;5.70;;;10.30;99.90;;;;;;5116611;28;20293;-59
2023/05/04 03:39:40;;;;;;;8.45;5.82;;;10.20;99.90;;;;;;5116444;28;20264;-58
2023/05/04 03:42:06;;;;;;;8.98;6.18;;;10.20;99.90;;;;;;5116391;28;20223;-58
2023/05/04 03:44:31;;;;;;;7.15;5.80;;;10.10;99.90;;;;;;5116256;28;20719;-58
2023/05/04 03:46:57;;;;;;;7.32;6.00;;;10.10;99.90;;;;;;5116235;28;20174;-59
2023/05/04 03:49:23;;;;;;;7.68;5.70;;;10.20;99.90;;;;;;5116207;28;20717;-58
2023/05/04 03:51:48;;;;;;;8.10;5.70;;;10.30;99.90;;;;;;5116168;28;20217;-58
2023/05/04 03:54:14;;;;;;;6.32;5.72;;;10.00;99.90;;;;;;5115926;28;20223;-59
2023/05/04 03:56:39;;;;;;;8.15;5.97;;;10.10;99.90;;;;;;5116059;28;20253;-58
2023/05/04 03:59:05;;;;;;;8.40;6.00;;;10.10;99.90;;;;;;5115982;28;20256;-58
2023/05/04 04:01:31;;;;;;;6.95;5.95;;;10.20;99.90;;;;;;5114867;28;20184;-59
2023/05/04 04:03:56;;;;;;;9.23;6.55;;;10.10;99.90;;;;;;5115607;28;20174;-58
2023/05/04 04:06:22;;;;;;;7.20;6.13;;;10.10;99.90;;;;;;5115665;28;20173;-60
2023/05/04 04:08:48;;;;;;;8.15;5.88;;;10.10;99.90;;;;;;5115902;28;20174;-58
2023/05/04 04:11:13;;;;;;;7.40;6.55;;;10.10;99.90;;;;;;5115806;28;20209;-59
2023/05/04 04:13:39;;;;;;;6.80;6.10;;;10.20;99.90;;;;;;5115579;28;20212;-60
2023/05/04 04:16:05;;;;;;;7.05;6.22;;;10.10;99.90;;;;;;5115582;28;20174;-58
2023/05/04 04:18:31;;;;;;;6.90;5.72;;;10.00;99.90;;;;;;5115498;28;20169;-58
2023/05/04 04:20:57;;;;;;;5.93;5.35;;;10.10;99.90;;;;;;5114874;28;20196;-58
2023/05/04 04:23:23;;;;;;;7.45;5.93;;;10.00;99.90;;;;;;5115538;28;20624;-59
2023/05/04 04:25:49;;;;;;;8.10;6.53;;;10.00;99.90;;;;;;5115486;28;20169;-58
2023/05/04 04:28:15;;;;;;;6.45;5.85;;;10.00;99.90;;;;;;5115499;28;20173;-60
2023/05/04 04:30:41;;;;;;;9.80;6.70;;;10.00;99.90;;;;;;5115480;28;20284;-58
2023/05/04 04:33:07;;;;;;;8.98;5.88;;;10.00;99.90;;;;;;5115120;28;20525;-58
2023/05/04 04:35:33;;;;;;;9.35;6.22;;;10.00;99.90;;;;;;5115160;28;20176;-58
2023/05/04 04:37:58;;;;;;;8.80;6.03;;;10.10;99.90;;;;;;5115328;28;20173;-59
2023/05/04 04:40:24;;;;;;;8.07;6.32;;;10.10;99.90;;;;;;5115226;28;20226;-60
2023/05/04 04:42:51;;;;;;;8.63;6.28;;;10.10;99.90;;;;;;5114835;28;20180;-60
2023/05/04 04:45:17;;;;;;;10.27;6.30;;;10.00;99.90;;;;;;5115017;28;20169;-60
2023/05/04 04:47:44;;;;;;;7.82;6.13;;;10.00;99.90;;;;;;5114864;28;20176;-60
2023/05/04 04:50:10;;;;;;;7.97;5.95;;;10.10;99.90;;;;;;5114542;28;20762;-59
2023/05/04 04:52:36;;;;;;;8.13;6.15;;;10.10;99.90;;;;;;5114578;28;20166;-59
2023/05/04 04:55:03;;;;;;;7.38;5.93;;;10.20;99.90;;;;;;5114864;28;20200;-60
2023/05/04 04:57:29;;;;;;;8.35;6.18;;;10.20;99.90;;;;;;5114495;28;20181;-60
2023/05/04 04:59:55;;;;;;;9.00;6.15;;;10.10;99.90;;;;;;5114763;28;20181;-60
2023/05/04 05:02:21;;;;;;;7.55;6.22;;;10.20;99.90;;;;;;5114648;28;20242;-60
2023/05/04 05:04:46;;;;;;;7.60;6.25;;;10.20;99.90;;;;;;5114821;28;20287;-59
2023/05/04 05:07:12;;;;;;;7.75;6.53;;;10.20;99.90;;;;;;5114552;28;20687;-59
2023/05/04 05:09:41;;;;;;;8.52;6.38;;;10.20;99.90;;;;;;5114577;28;20173;-59
2023/05/04 05:12:07;;;;;;;10.23;6.00;;;10.20;99.90;;;;;;5114417;28;20217;-59
2023/05/04 05:14:34;;;;;;;7.30;6.43;;;10.20;99.90;;;;;;5114123;28;20620;-59
2023/05/04 05:17:02;;;;;;;8.05;5.75;;;10.20;99.90;;;;;;5114290;28;20173;-59
2023/05/04 05:19:28;;;;;;;8.65;6.43;;;10.20;99.90;;;;;;5114565;28;20631;-59
2023/05/04 05:21:54;;;;;;;9.90;6.15;;;10.20;99.90;;;;;;5114609;28;20181;-58
2023/05/04 05:24:19;;;;;;;10.30;6.07;;;10.30;99.90;;;;;;5114506;28;20181;-59
2023/05/04 05:26:45;;;;;;;8.10;6.18;;;10.30;99.90;;;;;;5114387;28;20582;-58
2023/05/04 05:29:11;;;;;;;6.90;6.07;;;10.40;99.90;;;;;;5114287;28;20173;-58
2023/05/04 05:31:36;;;;;;;8.18;6.32;;;10.40;99.90;;;;;;5113976;28;20205;-59
2023/05/04 05:34:02;;;;;;;8.18;6.18;;;10.30;99.90;;;;;;5114009;28;20169;-57
2023/05/04 05:36:28;;;;;;;7.82;6.03;;;10.30;99.90;;;;;;5113950;28;20225;-57
2023/05/04 05:38:53;;;;;;;8.02;6.25;;;10.40;99.90;;;;;;5114131;28;20181;-60
2023/05/04 05:41:19;;;;;;;8.48;6.07;;;10.40;99.90;;;;;;5114023;28;20178;-59
2023/05/04 05:43:45;;;;;;;7.32;5.78;;;10.50;99.90;;;;;;5113888;28;20178;-59
2023/05/04 05:46:11;;;;;;;7.68;6.25;;;10.60;99.90;;;;;;5113958;28;20216;-59
2023/05/04 05:48:37;;;;;;;7.70;6.43;;;10.50;99.90;;;;;;5113628;28;20173;-60
2023/05/04 05:51:03;;;;;;;7.82;6.40;;;10.50;99.90;;;;;;5095874;28;20576;-59
2023/05/04 05:53:28;;;;;;;6.90;6.22;;;10.70;99.90;;;;;;5096061;28;20173;-58
2023/05/04 05:55:54;;;;;;;7.63;5.88;;;10.80;99.90;;;;;;5114012;28;20169;-58
2023/05/04 05:58:20;;;;;;;8.27;6.28;;;10.80;99.90;;;;;;5113778;28;20205;-58
2023/05/04 06:00:46;;;;;;;7.70;6.28;;;11.00;99.90;;;;;;5113667;28;20208;-58
2023/05/04 06:03:13;;;;;;;9.13;6.05;;;11.20;99.90;;;;;;5113883;28;20241;-58
2023/05/04 06:05:39;;;;;;;6.30;5.38;;;11.30;99.90;;;;;;5113819;28;20181;-58
2023/05/04 06:08:05;;;;;;;8.98;5.85;;;11.30;99.90;;;;;;5113693;28;20222;-59
2023/05/04 06:10:30;;;;;;;7.55;6.05;;;11.30;99.90;;;;;;5113507;28;20209;-58
2023/05/04 06:12:56;;;;;;;7.55;5.93;;;11.40;99.90;;;;;;5114051;28;20536;-58
2023/05/04 06:15:22;;;;;;;8.02;6.15;;;11.50;99.90;;;;;;5113518;28;20689;-58
2023/05/04 06:17:48;;;;;;;7.85;6.53;;;11.50;99.90;;;;;;5113710;28;20205;-58
2023/05/04 06:20:14;;;;;;;9.68;6.35;;;11.60;99.90;;;;;;5113593;28;20177;-58
2023/05/04 06:22:40;;;;;;;6.93;5.53;;;11.50;99.90;;;;;;5113702;28;20165;-59
2023/05/04 06:25:06;;;;;;;8.65;5.97;;;11.60;99.90;;;;;;5114599;28;20248;-58
2023/05/04 06:27:32;;;;;;;9.75;6.30;;;11.70;99.90;;;;;;5117658;28;20667;-59
2023/05/04 06:29:58;;;;;;;9.30;6.25;;;11.80;99.90;;;;;;5117575;28;20275;-59
2023/05/04 06:32:24;;;;;;;7.38;6.05;;;11.80;99.90;;;;;;5117571;28;20252;-58
2023/05/04 06:34:56;;;;;;;7.28;5.95;;;11.90;99.90;;;;;;5117662;28;20646;-58
2023/05/04 06:37:22;;;;;;;6.72;5.80;;;11.90;99.90;;;;;;5117599;28;20174;-58
2023/05/04 06:39:47;;;;;;;11.43;5.90;;;12.10;99.90;;;;;;5117477;28;20180;-58
2023/05/04 06:42:13;;;;;;;7.60;6.07;;;12.10;99.90;;;;;;5117493;28;20330;-58
2023/05/04 06:44:38;;;;;;;7.75;5.68;;;12.20;99.90;;;;;;5117388;28;20177;-58
2023/05/04 06:47:06;;;;;;;7.15;5.53;;;12.30;99.90;;;;;;5117568;28;20166;-59
2023/05/04 06:49:32;;;;;;;6.93;5.60;;;12.20;99.90;;;;;;5117324;28;20256;-58
2023/05/04 06:51:58;;;;;;;7.80;5.47;;;12.20;99.90;;;;;;5117310;28;20266;-59
2023/05/04 06:54:24;;;;;;;7.40;5.70;;;12.20;99.90;;;;;;5117135;28;20631;-58
2023/05/04 06:56:50;;;;;;;7.55;6.10;;;12.20;99.90;;;;;;5117164;28;20169;-58
2023/05/04 06:59:19;;;;;;;8.32;5.88;;;12.30;99.90;;;;;;5117353;28;20170;-58
2023/05/04 07:01:47;;;;;;;7.13;5.75;;;12.50;99.90;;;;;;5117270;28;20310;-58
2023/05/04 07:04:15;;;;;;;9.10;6.20;;;12.70;99.90;;;;;;5117183;28;20652;-58
2023/05/04 07:06:42;;;;;;;8.55;5.95;;;12.80;99.90;;;;;;5116935;28;20662;-59
2023/05/04 07:09:08;;;;;;;7.63;5.88;;;12.80;99.90;;;;;;5117011;28;20660;-58
2023/05/04 07:11:33;;;;;;;6.50;5.75;;;12.90;99.90;;;;;;5116787;28;20297;-58
2023/05/04 07:13:59;;;;;;;7.95;5.60;;;13.10;99.90;;;;;;5116988;28;20174;-58
2023/05/04 07:16:25;;;;;;;7.57;5.53;;;13.10;99.90;;;;;;5116805;28;20207;-58
2023/05/04 07:18:51;;;;;;;8.07;5.30;;;13.10;99.90;;;;;;5116884;28;20170;-58
2023/05/04 07:21:16;;;;;;;7.38;5.80;;;13.20;99.90;;;;;;5116927;28;20217;-58
2023/05/04 07:23:42;;;;;;;9.65;5.68;;;13.20;99.90;;;;;;5116800;28;20185;-58
2023/05/04 07:26:08;;;;;;;7.10;5.70;;;13.30;99.90;;;;;;5116563;28;20264;-58
2023/05/04 07:28:33;;;;;;;7.93;5.75;;;13.50;99.90;;;;;;5116438;28;20178;-58
2023/05/04 07:30:59;;;;;;;7.05;5.47;;;13.80;99.90;;;;;;5098349;28;20300;-58
2023/05/04 07:33:25;;;;;;;8.10;5.63;;;13.90;99.90;;;;;;5116340;28;20178;-58
2023/05/04 07:35:57;;;;;;;7.35;5.35;;;14.10;99.90;;;;;;5116160;28;20251;-58
2023/05/04 07:38:27;;;;;;;6.30;5.20;;;14.30;99.90;;;;;;5116399;28;20185;-58
2023/05/04 07:40:56;;;;;;;5.82;4.90;;;14.40;99.90;;;;;;5116190;28;20714;-59
2023/05/04 07:43:22;;;;;;;7.88;5.40;;;14.50;99.90;;;;;;5116388;28;20177;-58
2023/05/04 07:45:48;;;;;;;5.88;5.22;;;14.60;99.90;;;;;;5116330;28;20625;-58
2023/05/04 07:48:15;;;;;;;8.02;4.88;;;14.90;99.90;;;;;;5116442;28;20516;-59
2023/05/04 07:50:41;;;;;;;6.60;5.30;;;15.10;99.90;;;;;;5115934;28;20297;-58
2023/05/04 07:53:07;;;;;;;6.15;5.22;;;15.00;99.90;;;;;;5116086;28;20635;-58
2023/05/04 07:55:32;;;;;;;6.90;5.20;;;15.20;99.90;;;;;;5115969;28;20624;-59
2023/05/04 07:57:58;;;;;;;6.53;5.32;;;15.30;99.90;;;;;;5116185;28;20188;-61
2023/05/04 08:00:25;;;;;;;8.60;5.07;;;15.50;99.90;;;;;;5116254;28;20650;-58
2023/05/04 08:02:50;;;;;;;6.78;5.32;;;15.50;99.90;;;;;;5115758;28;20173;-58
2023/05/04 08:05:16;;;;;;;5.85;4.65;;;15.60;99.90;;;;;;5115806;28;20181;-58
2023/05/04 08:07:42;;;;;;;6.10;4.95;;;15.70;99.90;;;;;;5115812;28;20226;-58
2023/05/04 08:10:08;;;;;;;6.15;5.13;;;15.80;99.90;;;;;;5115602;28;20177;-58
2023/05/04 08:12:34;;;;;;;4.85;4.35;;;16.00;99.90;;;;;;5115913;28;20269;-58
2023/05/04 08:15:00;;;;;;;4.78;4.20;;;16.20;99.70;;;;;;5115751;28;20197;-58
2023/05/04 08:17:25;;;;;;;4.70;4.10;;;16.20;99.90;;;;;;5115705;28;20169;-59
2023/05/04 08:19:51;;;;;;;5.53;4.53;;;16.40;99.40;;;;;;5115656;28;20173;-58
2023/05/04 08:22:17;;;;;;;5.25;4.53;;;16.60;99.90;;;;;;5097262;28;20547;-58
2023/05/04 08:24:46;;;;;;;6.28;4.45;;;16.80;99.30;;;;;;5115363;28;20165;-58
2023/05/04 08:27:13;;;;;;;5.88;4.22;;;16.90;99.30;;;;;;5115598;28;20254;-59
2023/05/04 08:29:40;;;;;;;5.97;4.03;;;17.00;97.30;;;;;;5115505;28;20219;-59
2023/05/04 08:32:07;;;;;;;5.32;4.30;;;17.00;98.20;;;;;;5115360;28;20213;-59
2023/05/04 08:34:32;;;;;;;7.60;4.00;;;17.00;98.10;;;;;;5115163;28;20184;-60
2023/05/04 08:36:58;;;;;;;8.35;4.00;;;17.20;97.40;;;;;;5115237;28;20169;-58
2023/05/04 08:39:24;;;;;;;4.63;3.85;;;17.50;98.00;;;;;;5115139;28;20628;-58
2023/05/04 08:41:50;;;;;;;7.15;4.05;;;17.70;97.70;;;;;;5115468;28;20239;-58
2023/05/04 08:44:17;;;;;;;5.05;3.80;;;17.90;97.40;;;;;;5115168;28;20592;-57
2023/05/04 08:46:51;;;;;;;4.30;3.67;;;18.00;96.40;;;;;;5115105;28;20169;-58
2023/05/04 08:49:18;;;;;;;4.18;3.70;;;18.20;97.10;;;;;;5114434;28;20229;-58
2023/05/04 08:51:46;;;;;;;4.78;3.95;;;18.20;95.90;;;;;;5114797;28;20198;-58
2023/05/04 08:54:12;;;;;;;4.55;3.58;;;18.20;94.50;;;;;;5115128;28;20169;-58
2023/05/04 08:56:39;;;;;;;5.93;3.75;;;18.30;95.70;;;;;;5114932;28;20218;-59
2023/05/04 08:59:08;;;;;;;5.00;3.53;;;18.60;96.10;;;;;;5114891;28;20183;-58
2023/05/04 09:01:36;;;;;;;4.68;3.88;;;18.70;94.80;;;;;;5114826;28;20184;-58
2023/05/04 09:04:03;;;;;;;6.80;4.43;;;18.90;94.50;;;;;;5114669;28;20176;-58
2023/05/04 09:06:30;;;;;;;6.03;3.72;;;18.90;94.50;;;;;;5114476;28;20646;-58
2023/05/04 09:08:56;;;;;;;4.35;3.80;;;18.90;94.40;;;;;;5114522;28;20188;-58
2023/05/04 09:11:22;;;;;;;4.35;3.95;;;19.00;93.20;;;;;;5114394;28;20208;-58
2023/05/04 09:13:47;;;;;;;4.90;3.90;;;19.10;93.70;;;;;;5114683;28;20670;-59
2023/05/04 09:16:15;;;;;;;5.47;3.50;;;19.50;93.90;;;;;;5114639;28;20321;-58
2023/05/04 09:18:43;;;;;;;5.07;4.00;;;19.70;94.10;;;;;;5114318;28;20196;-59
2023/05/04 09:21:10;;;;;;;3.90;3.40;;;19.60;93.20;;;;;;5114263;28;20177;-58
2023/05/04 09:23:47;;;;;;;5.28;4.30;;;19.70;93.70;;;;;;5114497;28;20176;-58
2023/05/04 09:26:12;;;;;;;4.93;3.60;;;19.90;92.60;;;;;;5114293;28;20255;-58
2023/05/04 09:28:38;;;;;;;4.80;3.60;;;19.90;92.00;;;;;;5114260;28;20644;-58
2023/05/04 09:31:05;;;;;;;5.68;3.83;;;19.80;93.60;;;;;;5114154;28;20694;-58
2023/05/04 09:33:31;;;;;;;4.22;3.53;;;19.80;92.80;;;;;;5114018;28;20176;-58
2023/05/04 09:36:10;;;;;;;6.82;3.95;;;19.90;92.60;;;;;;5114663;28;20531;-58
2023/05/04 09:38:36;;;;;;;4.65;3.95;;;19.80;91.40;;;;;;5114060;28;20165;-58
2023/05/04 09:41:02;;;;;;;6.18;4.32;;;19.90;91.80;;;;;;5114185;28;20264;-58
2023/05/04 09:43:40;;;;;;;5.63;3.72;;;19.90;91.80;;;;;;5114195;28;20298;-58
2023/05/04 09:46:07;;;;;;;4.80;3.67;;;20.00;91.40;;;;;;5113994;28;20256;-58
2023/05/04 09:48:33;;;;;;;6.68;3.90;;;20.00;91.80;;;;;;5113683;28;20587;-58
2023/05/04 09:51:02;;;;;;;5.65;4.05;;;20.10;92.80;;;;;;5113991;28;20209;-57
2023/05/04 09:53:29;;;;;;;7.85;4.05;;;20.20;92.00;;;;;;5113830;28;20165;-59
2023/05/04 09:56:16;;;;;;;5.25;3.90;;;20.40;92.60;;;;;;5095848;28;20177;-57
2023/05/04 09:58:44;;;;;;;4.82;3.75;;;20.50;92.20;;;;;;5113624;28;20249;-57
2023/05/04 10:01:10;;;;;;;5.85;4.00;;;20.50;91.70;;;;;;5113078;28;20173;-57
2023/05/04 10:03:37;;;;;;;5.32;4.05;;;20.60;91.70;;;;;;5113772;28;20177;-57
2023/05/04 10:06:04;;;;;;;5.60;3.60;;;20.70;91.10;;;;;;5113762;28;20201;-57
2023/05/04 10:08:31;;;;;;;5.32;3.60;;;20.60;90.90;;;;;;5113621;28;20226;-57
2023/05/04 10:10:56;;;;;;;4.72;4.07;;;20.90;92.40;;;;;;5113622;28;20236;-57
2023/05/04 10:13:23;;;;;;;4.72;3.50;;;20.90;91.00;;;;;;5113516;28;20209;-58
2023/05/04 10:16:08;;;;;;;5.35;3.92;;;20.90;90.80;;;;;;5113826;28;20169;-59
2023/05/04 10:19:08;;;;;;;8.82;4.45;;;21.00;90.50;;;;;;5113462;28;20173;-58
2023/05/04 10:22:02;;;;;;;4.00;3.40;;;21.00;90.70;;;;;;5113592;28;20169;-57
2023/05/04 10:24:49;;;;;;;5.68;3.53;;;21.20;91.10;;;;;;5113547;28;20627;-57
2023/05/04 10:27:17;;;;;;;5.07;3.83;;;21.10;90.60;;;;;;5113511;28;20623;-57
2023/05/04 10:29:49;;;;;;;5.28;3.88;;;21.30;90.70;;;;;;5113337;28;20216;-58
2023/05/04 10:32:20;;;;;;;5.05;3.70;;;21.30;90.20;;;;;;5113340;28;20292;-59
2023/05/04 10:34:45;;;;;;;5.80;3.53;;;21.50;89.70;;;;;;5113310;28;20196;-57
2023/05/04 10:37:21;;;;;;;5.18;3.88;;;21.50;90.10;;;;;;5113475;28;20174;-58
2023/05/04 10:39:53;;;;;;;6.45;4.03;;;21.70;89.60;;;;;;5113389;28;20177;-58
2023/05/04 10:42:20;;;;;;;6.18;3.60;;;21.80;90.70;;;;;;5094973;28;20575;-58
2023/05/04 10:44:53;;;;;;;5.18;3.40;;;21.70;86.80;;;;;;5113425;28;20178;-57
2023/05/04 10:47:31;;;;;;;6.10;3.17;;;21.70;87.00;;;;;;5113291;28;20647;-58
2023/05/04 10:50:13;;;;;;;5.32;3.50;;;21.70;86.80;;;;;;5113035;28;20699;-57
2023/05/04 10:52:50;;;;;;;3.95;3.35;;;21.70;85.30;;;;;;5113242;28;20256;-57
2023/05/04 10:55:17;;;;;;;3.78;3.30;;;21.80;86.70;;;;;;5113332;28;20306;-58
2023/05/04 10:57:50;;;;;;;4.05;3.00;;;21.80;85.40;;;;;;5113368;28;20174;-58
2023/05/04 11:00:17;;;;;;;4.40;3.47;;;22.00;87.80;;;;;;5113221;28;20174;-58
2023/05/04 11:02:43;;;;;;;5.30;2.85;;;22.00;84.70;;;;;;5113212;28;20170;-58
2023/05/04 11:05:16;;;;;;;5.18;3.30;;;22.20;87.00;;;;;;5113012;28;20200;-57
2023/05/04 11:07:41;;;;;;;3.72;3.30;;;22.20;86.60;;;;;;5113249;28;20186;-58
2023/05/04 11:10:23;;;;;;;3.20;2.90;;;22.10;83.30;;;;;;5113122;28;20218;-58
2023/05/04 11:12:49;;;;;;;4.00;2.85;;;22.20;85.60;;;;;;5116674;28;20172;-57
2023/05/04 11:15:15;;;;;;;4.40;2.63;;;22.50;85.10;;;;;;5116768;28;20187;-58
2023/05/04 11:17:48;;;;;;;3.70;2.65;;;22.80;84.80;;;;;;5117032;28;20161;-58
2023/05/04 11:20:21;;;;;;;4.68;2.90;;;22.70;81.60;;;;;;5117005;28;20180;-58
2023/05/04 11:22:47;;;;;;;3.10;2.47;;;22.70;81.50;;;;;;5116604;28;20528;-58
2023/05/04 11:25:13;;;;;;;4.53;2.60;;;22.70;81.90;;;;;;5116747;28;20582;-58
2023/05/04 11:27:40;;;;;;;3.65;2.90;;;22.80;84.20;;;;;;5116637;28;20169;-58
2023/05/04 11:30:07;;;;;;;4.60;2.40;;;22.80;80.60;;;;;;5116435;28;20174;-57
2023/05/04 11:32:36;;;;;;;4.45;2.60;;;23.00;82.40;;;;;;5116261;28;20181;-58
2023/05/04 11:35:03;;;;;;;5.20;2.70;;;23.00;82.10;;;;;;5116598;28;20166;-58
2023/05/04 11:37:30;;;;;;;3.88;2.72;;;22.90;80.10;;;;;;5116550;28;20299;-58
2023/05/04 11:39:57;;;;;;;2.97;2.45;;;22.90;81.50;;;;;;5116396;28;20510;-57
2023/05/04 11:42:23;;;;;;;4.75;3.05;;;23.00;80.80;;;;;;5116227;28;20207;-57
2023/05/04 11:44:50;;;;;;;4.40;2.83;;;23.00;79.10;;;;;;5116109;28;20177;-57
2023/05/04 11:47:16;;;;;;;3.75;3.05;;;22.90;82.50;;;;;;5116268;28;20260;-58
2023/05/04 11:49:43;;;;;;;4.57;3.10;;;23.00;79.90;;;;;;5115804;28;20315;-58
2023/05/04 11:52:09;;;;;;;4.55;2.90;;;22.90;79.30;;;;;;5115916;28;20627;-59
2023/05/04 11:54:37;;;;;;;4.47;3.20;;;23.00;80.10;;;;;;5097756;28;20174;-59
2023/05/04 11:57:03;;;;;;;4.10;2.90;;;22.90;80.20;;;;;;5115995;28;20659;-58
2023/05/04 11:59:30;;;;;;;4.13;2.80;;;22.70;80.10;;;;;;5115934;28;20177;-58
2023/05/04 12:01:56;;;;;;;4.18;2.45;;;22.70;80.70;;;;;;5115868;28;20177;-58
2023/05/04 12:04:22;;;;;;;4.07;2.75;;;22.90;79.80;;;;;;5097756;28;20174;-58
2023/05/04 12:06:48;;;;;;;4.38;2.60;;;22.90;78.50;;;;;;5115895;28;20173;-58
2023/05/04 12:09:15;;;;;;;4.63;2.65;;;23.10;78.80;;;;;;5115844;28;20208;-58
2023/05/04 12:11:41;;;;;;;4.35;2.97;;;23.20;78.60;;;;;;5115641;28;20245;-58
2023/05/04 12:14:08;;;;;;;5.28;3.25;;;23.30;79.90;;;;;;5115677;28;20177;-58
2023/05/04 12:16:35;;;;;;;4.65;2.90;;;23.40;79.20;;;;;;5115774;28;20177;-58
2023/05/04 12:19:06;;;;;;;3.83;2.75;;;23.40;79.60;;;;;;5115860;28;20245;-58
2023/05/04 12:21:32;;;;;;;4.22;3.00;;;23.60;81.00;;;;;;5115553;28;20226;-58
2023/05/04 12:23:59;;;;;;;4.13;3.00;;;23.60;76.70;;;;;;5114512;28;20180;-58
2023/05/04 12:26:26;;;;;;;3.38;3.08;;;23.40;77.00;;;;;;5115454;28;20177;-58
2023/05/04 12:28:52;;;;;;;5.32;3.47;;;23.30;77.10;;;;;;5115139;28;20173;-58
2023/05/04 12:31:17;;;;;;;3.65;2.83;;;23.40;78.60;;;;;;5115425;28;20285;-58
2023/05/04 12:33:44;;;;;;;4.38;2.90;;;23.50;78.60;;;;;;5115421;28;20595;-58
2023/05/04 12:36:10;;;;;;;3.53;2.78;;;23.30;77.70;;;;;;5115244;28;20178;-58
2023/05/04 12:38:38;;;;;;;4.50;2.58;;;23.40;78.20;;;;;;5096859;28;20257;-59
2023/05/04 12:41:09;;;;;;;13.85;4.07;;;23.50;77.50;;;;;;5115185;28;20260;-58
2023/05/04 12:43:35;;;;;;;5.53;3.45;;;23.40;76.90;;;;;;5115152;28;20150;-58
2023/05/04 12:46:01;;;;;;;3.92;3.15;;;23.40;77.60;;;;;;5115223;28;20180;-58